createdAt,value
2022-08-20T05:11:49.095Z,18.60
2022-08-20T05:14:16.034Z,18.60
2022-08-20T05:16:42.968Z,18.60
2022-08-20T05:19:12.913Z,18.50
2022-08-20T05:21:40.385Z,18.50
2022-08-20T05:24:07.494Z,18.50
2022-08-20T05:26:37.192Z,18.40
2022-08-20T05:29:15.913Z,18.40
2022-08-20T05:31:43.007Z,18.50
2022-08-20T05:34:12.313Z,18.40
2022-08-20T05:36:43.625Z,18.40
2022-08-20T05:39:10.551Z,18.40
2022-08-20T05:41:38.547Z,18.40
2022-08-20T05:44:05.756Z,18.40
2022-08-20T05:46:32.556Z,18.30
2022-08-20T05:49:01.742Z,18.40
2022-08-20T05:51:29.817Z,18.40
2022-08-20T05:53:59.186Z,18.40
2022-08-20T05:56:30.791Z,18.50
2022-08-20T05:59:00.452Z,18.60
2022-08-20T06:01:27.490Z,18.60
2022-08-20T06:04:13.135Z,18.60
2022-08-20T06:06:44.593Z,18.60
2022-08-20T06:09:14.820Z,18.70
2022-08-20T06:11:41.887Z,18.80
2022-08-20T06:14:08.820Z,18.90
2022-08-20T06:16:37.375Z,19.00
2022-08-20T06:19:05.508Z,19.10
2022-08-20T06:21:32.538Z,19.20
2022-08-20T06:24:01.095Z,19.40
2022-08-20T06:26:30.435Z,19.50
2022-08-20T06:29:02.654Z,19.20
2022-08-20T06:31:29.640Z,19.00
2022-08-20T06:33:57.123Z,19.00
2022-08-20T06:36:24.944Z,19.00
2022-08-20T06:38:52.013Z,19.00
2022-08-20T06:41:18.913Z,19.00
2022-08-20T06:43:46.559Z,19.00
2022-08-20T06:46:14.665Z,19.10
2022-08-20T06:48:41.709Z,19.10
2022-08-20T06:51:09.938Z,19.10
2022-08-20T06:53:37.177Z,19.10
2022-08-20T06:56:04.470Z,19.00
2022-08-20T06:58:37.874Z,19.50
2022-08-20T07:01:09.831Z,19.30
2022-08-20T07:03:38.597Z,19.20
2022-08-20T07:06:05.523Z,19.20
2022-08-20T07:08:32.400Z,19.20
2022-08-20T07:10:59.690Z,19.20
2022-08-20T07:13:27.006Z,19.20
2022-08-20T07:15:54.348Z,19.20
2022-08-20T07:18:28.885Z,19.20
2022-08-20T07:20:57.444Z,19.30
2022-08-20T07:23:25.251Z,19.40
2022-08-20T07:25:52.333Z,19.40
2022-08-20T07:28:21.079Z,19.40
2022-08-20T07:31:13.323Z,19.50
2022-08-20T07:33:41.365Z,19.50
2022-08-20T07:36:09.111Z,19.60
2022-08-20T07:38:36.714Z,19.60
2022-08-20T07:41:04.940Z,19.60
2022-08-20T07:43:32.393Z,19.60
2022-08-20T07:46:08.525Z,19.50
2022-08-20T07:48:36.677Z,19.50
2022-08-20T07:51:04.398Z,19.40
2022-08-20T07:53:35.590Z,19.40
2022-08-20T07:56:06.076Z,19.40
2022-08-20T07:58:35.855Z,19.40
2022-08-20T08:01:03.191Z,19.40
2022-08-20T08:03:40.481Z,19.50
2022-08-20T08:06:28.368Z,19.60
2022-08-20T08:08:55.907Z,19.70
2022-08-20T08:11:22.961Z,19.70
2022-08-20T08:13:49.793Z,19.80
2022-08-20T08:16:16.630Z,19.80
2022-08-20T08:19:39.969Z,19.80
2022-08-20T08:22:13.211Z,20.10
2022-08-20T08:24:57.424Z,20.30
2022-08-20T08:27:25.321Z,20.50
2022-08-20T08:29:52.161Z,20.40
2022-08-20T08:32:19.492Z,20.40
2022-08-20T08:34:48.228Z,20.40
2022-08-20T08:37:15.261Z,20.40
2022-08-20T08:39:42.427Z,20.40
2022-08-20T08:42:38.961Z,20.40
2022-08-20T08:45:10.896Z,20.50
2022-08-20T08:47:39.283Z,20.80
2022-08-20T08:50:10.091Z,20.80
2022-08-20T08:52:41.306Z,20.90
2022-08-20T08:55:22.240Z,21.00
2022-08-20T08:57:50.221Z,21.30
2022-08-20T09:00:19.736Z,21.60
2022-08-20T09:03:22.505Z,21.80
2022-08-20T09:05:53.579Z,21.60
2022-08-20T09:08:27.462Z,21.70
2022-08-20T09:10:54.789Z,21.80
2022-08-20T09:13:22.397Z,21.80
2022-08-20T09:15:49.417Z,21.70
2022-08-20T09:18:16.603Z,21.70
2022-08-20T09:20:43.734Z,21.80
2022-08-20T09:23:10.707Z,21.80
2022-08-20T09:25:37.890Z,21.90
2022-08-20T09:28:09.446Z,22.00
2022-08-20T09:30:36.830Z,22.10
2022-08-20T09:33:05.271Z,22.20
2022-08-20T09:35:32.293Z,22.50
2022-08-20T09:37:59.370Z,22.70
2022-08-20T09:40:26.724Z,22.90
2022-08-20T09:42:53.925Z,23.00
2022-08-20T09:45:21.351Z,23.10
2022-08-20T09:47:56.569Z,23.10
2022-08-20T09:50:26.809Z,23.00
2022-08-20T09:52:55.238Z,22.90
2022-08-20T09:55:28.746Z,22.90
2022-08-20T09:57:55.888Z,22.90
2022-08-20T10:00:22.926Z,23.10
2022-08-20T10:02:49.847Z,23.90
2022-08-20T10:05:16.901Z,24.90
2022-08-20T10:07:43.824Z,25.50
2022-08-20T10:10:13.703Z,25.90
2022-08-20T10:12:41.718Z,26.40
2022-08-20T10:15:09.472Z,26.70
2022-08-20T10:17:41.954Z,26.50
2022-08-20T10:20:11.310Z,26.70
2022-08-20T10:22:38.341Z,27.10
2022-08-20T10:25:06.426Z,27.60
2022-08-20T10:27:34.297Z,28.10
2022-08-20T10:30:02.433Z,28.70
2022-08-20T10:32:29.623Z,28.70
2022-08-20T10:34:56.677Z,28.40
2022-08-20T10:37:25.625Z,28.00
2022-08-20T10:39:53.292Z,27.90
2022-08-20T10:42:20.474Z,28.10
2022-08-20T10:44:47.334Z,27.80
2022-08-20T10:47:14.164Z,27.00
2022-08-20T10:49:41.019Z,26.50
2022-08-20T10:52:07.889Z,26.10
2022-08-20T10:54:35.572Z,25.90
2022-08-20T10:57:02.908Z,25.70
2022-08-20T10:59:29.880Z,25.50
2022-08-20T11:01:56.795Z,25.50
2022-08-20T11:04:23.720Z,25.60
2022-08-20T11:06:50.591Z,26.20
2022-08-20T11:09:17.593Z,27.10
2022-08-20T11:11:44.556Z,27.80
2022-08-20T11:14:11.571Z,28.50
2022-08-20T11:16:38.511Z,29.00
2022-08-20T11:19:05.396Z,28.80
2022-08-20T11:21:32.361Z,28.20
2022-08-20T11:24:02.713Z,28.20
2022-08-20T11:26:30.162Z,28.00
2022-08-20T11:28:57.098Z,27.80
2022-08-20T11:31:24.023Z,27.70
2022-08-20T11:33:50.883Z,28.30
2022-08-20T11:36:17.911Z,28.90
2022-08-20T11:38:44.915Z,29.20
2022-08-20T11:41:11.893Z,29.20
2022-08-20T11:43:38.817Z,29.40
2022-08-20T11:46:06.102Z,30.00
2022-08-20T11:48:33.019Z,30.50
2022-08-20T11:51:00.346Z,30.90
2022-08-20T11:53:27.187Z,30.60
2022-08-20T11:55:55.618Z,30.80
2022-08-20T11:58:22.649Z,31.40
2022-08-20T12:00:49.801Z,31.70
2022-08-20T12:03:16.779Z,31.50
2022-08-20T12:05:45.928Z,31.60
2022-08-20T12:08:25.487Z,31.60
2022-08-20T12:10:54.877Z,31.50
2022-08-20T12:13:21.802Z,31.10
2022-08-20T12:15:57.942Z,30.80
2022-08-20T12:18:27.177Z,30.70
2022-08-20T12:20:54.763Z,31.00
2022-08-20T12:23:21.703Z,31.50
2022-08-20T12:25:48.974Z,32.00
2022-08-20T12:28:15.964Z,33.30
2022-08-20T12:30:42.845Z,33.90
2022-08-20T12:33:09.855Z,34.00
2022-08-20T12:35:37.244Z,32.80
2022-08-20T12:38:06.320Z,31.70
2022-08-20T12:40:34.373Z,30.90
2022-08-20T12:43:02.683Z,30.50
2022-08-20T12:45:30.611Z,30.50
2022-08-20T12:48:09.445Z,30.60
2022-08-20T12:50:37.755Z,31.00
2022-08-20T12:53:05.586Z,31.10
2022-08-20T12:55:33.093Z,30.70
2022-08-20T12:58:01.162Z,30.50
2022-08-20T13:00:43.098Z,30.30
2022-08-20T13:03:12.656Z,29.50
2022-08-20T13:05:40.248Z,30.30
2022-08-20T13:08:09.517Z,30.50
2022-08-20T13:10:44.060Z,30.40
2022-08-20T13:13:14.694Z,30.20
2022-08-20T13:15:42.028Z,29.80
2022-08-20T13:18:09.198Z,29.60
2022-08-20T13:20:36.895Z,30.00
2022-08-20T13:23:05.335Z,30.50
2022-08-20T13:25:33.137Z,31.40
2022-08-20T13:28:04.485Z,32.10
2022-08-20T13:30:33.210Z,32.50
2022-08-20T13:33:00.295Z,32.20
2022-08-20T13:35:27.183Z,31.70
2022-08-20T13:37:54.113Z,31.30
2022-08-20T13:40:21.082Z,30.90
2022-08-20T13:42:47.990Z,30.30
2022-08-20T13:45:14.884Z,30.30
2022-08-20T13:47:42.510Z,30.70
2022-08-20T13:50:17.135Z,30.70
2022-08-20T13:52:44.791Z,31.10
2022-08-20T13:55:17.732Z,31.80
2022-08-20T13:57:46.579Z,31.30
2022-08-20T14:00:16.316Z,30.50
2022-08-20T14:02:43.180Z,29.60
2022-08-20T14:05:11.223Z,29.00
2022-08-20T14:07:41.203Z,29.30
2022-08-20T14:10:10.133Z,30.50
2022-08-20T14:12:37.044Z,31.10
2022-08-20T14:15:04.501Z,31.90
2022-08-20T14:17:32.605Z,31.40
2022-08-20T14:20:02.008Z,31.10
2022-08-20T14:22:29.406Z,31.30
2022-08-20T14:24:56.714Z,31.60
2022-08-20T14:27:27.762Z,31.80
2022-08-20T14:29:58.241Z,32.40
2022-08-20T14:32:25.802Z,33.10
2022-08-20T14:34:53.701Z,33.60
2022-08-20T14:37:26.731Z,33.00
2022-08-20T14:39:57.080Z,32.10
2022-08-20T14:42:27.078Z,31.60
2022-08-20T14:44:59.042Z,31.00
2022-08-20T14:47:30.054Z,30.50
2022-08-20T14:50:04.838Z,29.50
2022-08-20T14:52:36.362Z,28.60
2022-08-20T14:55:09.545Z,28.60
2022-08-20T14:57:37.690Z,29.00
2022-08-20T15:00:08.149Z,29.00
2022-08-20T15:02:35.047Z,29.00
2022-08-20T15:05:02.327Z,29.00
2022-08-20T15:07:32.461Z,29.20
2022-08-20T15:10:01.095Z,29.40
2022-08-20T15:12:28.922Z,29.80
2022-08-20T15:14:55.971Z,30.00
2022-08-20T15:17:29.588Z,29.70
2022-08-20T15:19:57.513Z,29.50
2022-08-20T15:22:24.833Z,29.80
2022-08-20T15:24:55.474Z,30.00
2022-08-20T15:27:25.338Z,30.20
2022-08-20T15:29:53.045Z,29.60
2022-08-20T15:32:20.853Z,28.60
2022-08-20T15:34:47.901Z,28.00
2022-08-20T15:37:21.118Z,28.40
2022-08-20T15:39:48.435Z,29.10
2022-08-20T15:42:16.656Z,29.00
2022-08-20T15:44:44.215Z,28.30
2022-08-20T15:47:34.923Z,27.60
2022-08-20T15:50:03.942Z,26.90
2022-08-20T15:52:42.168Z,26.60
2022-08-20T15:55:15.638Z,26.20
2022-08-20T15:58:14.012Z,26.40
2022-08-20T16:00:49.977Z,26.20
2022-08-20T16:03:25.678Z,26.30
2022-08-20T16:06:06.417Z,26.80
2022-08-20T16:09:38.267Z,26.90
2022-08-20T16:12:12.144Z,26.50
2022-08-20T16:14:42.834Z,26.20
2022-08-20T16:17:13.689Z,26.10
2022-08-20T16:19:52.469Z,26.00
2022-08-20T16:22:19.967Z,26.10
2022-08-20T16:24:47.302Z,26.10
2022-08-20T16:27:35.974Z,26.10
2022-08-20T16:30:11.861Z,26.10
2022-08-20T16:32:46.369Z,26.10
2022-08-20T16:35:30.169Z,25.90
2022-08-20T16:38:21.006Z,25.90
2022-08-20T16:40:55.038Z,26.00
2022-08-20T16:44:02.749Z,26.00
2022-08-20T16:46:37.953Z,26.00
2022-08-20T16:49:13.811Z,26.00
2022-08-20T16:51:52.035Z,26.10
2022-08-20T16:54:29.236Z,26.10
2022-08-20T16:57:06.120Z,26.10
2022-08-20T16:59:33.649Z,26.10
2022-08-20T17:02:11.185Z,26.00
2022-08-20T17:04:59.638Z,25.90
2022-08-20T17:07:58.898Z,25.70
2022-08-20T17:10:33.464Z,25.40
2022-08-20T17:13:06.376Z,25.20
2022-08-20T17:15:35.275Z,25.10
2022-08-20T17:18:25.949Z,25.00
2022-08-20T17:20:53.206Z,25.10
2022-08-20T17:23:21.391Z,25.10
2022-08-20T17:26:04.720Z,25.10
2022-08-20T17:28:35.250Z,25.00
2022-08-20T17:31:02.546Z,25.00
2022-08-20T17:33:35.784Z,24.90
2022-08-20T17:36:11.423Z,24.90
2022-08-20T17:38:46.555Z,24.80
2022-08-20T17:41:27.406Z,24.70
2022-08-20T17:44:03.870Z,24.50
2022-08-20T17:46:44.546Z,24.30
2022-08-20T17:49:17.366Z,24.20
2022-08-20T17:51:51.749Z,24.00
2022-08-20T17:54:23.117Z,23.80
2022-08-20T17:56:55.758Z,23.70
2022-08-20T18:00:01.071Z,23.70
2022-08-20T18:02:24.000Z,23.60
2022-08-20T18:04:53.589Z,23.50
2022-08-20T18:07:41.030Z,23.40
2022-08-20T18:10:14.718Z,23.30
2022-08-20T18:12:50.924Z,23.30
2022-08-20T18:15:36.169Z,23.20
2022-08-20T18:18:18.231Z,23.10
2022-08-20T18:20:51.299Z,23.10
2022-08-20T18:23:31.406Z,23.00
2022-08-20T18:26:06.449Z,22.90
2022-08-20T18:28:46.873Z,22.90
2022-08-20T18:31:53.649Z,22.80
2022-08-20T18:34:29.695Z,22.80
2022-08-20T18:37:06.830Z,22.70
2022-08-20T18:39:35.219Z,22.60
2022-08-20T18:42:22.991Z,22.60
2022-08-20T18:44:52.508Z,22.60
2022-08-20T18:47:33.080Z,22.60
2022-08-20T18:50:06.544Z,22.50
2022-08-20T18:52:46.534Z,22.50
2022-08-20T18:55:36.809Z,22.40
2022-08-20T18:58:07.345Z,22.50
2022-08-20T19:00:47.635Z,22.40
2022-08-20T19:03:17.494Z,22.40
2022-08-20T19:06:07.530Z,22.30
2022-08-20T19:08:48.358Z,22.20
2022-08-20T19:11:24.902Z,22.20
2022-08-20T19:14:26.959Z,22.20
2022-08-20T19:17:04.213Z,22.10
2022-08-20T19:19:33.087Z,22.00
2022-08-20T19:22:02.007Z,21.90
2022-08-20T19:24:32.553Z,21.90
2022-08-20T19:27:04.808Z,21.80
2022-08-20T19:29:37.052Z,21.80
2022-08-20T19:32:07.673Z,21.70
2022-08-20T19:34:35.643Z,21.70
2022-08-20T19:37:34.890Z,21.60
2022-08-20T19:40:18.517Z,21.60
2022-08-20T19:42:46.543Z,21.60
2022-08-20T19:45:26.005Z,21.60
2022-08-20T19:48:27.133Z,21.50
2022-08-20T19:51:10.657Z,21.50
2022-08-20T19:53:43.081Z,21.50
2022-08-20T19:56:14.669Z,21.40
2022-08-20T19:58:42.436Z,21.40
2022-08-20T20:01:21.257Z,21.40
2022-08-20T20:04:00.681Z,21.30
2022-08-20T20:06:30.042Z,21.30
2022-08-20T20:08:58.796Z,21.20
2022-08-20T20:11:41.179Z,21.20
2022-08-20T20:14:12.339Z,21.10
2022-08-20T20:16:41.597Z,21.10
2022-08-20T20:19:26.408Z,21.10
2022-08-20T20:22:19.752Z,21.10
2022-08-20T20:24:57.677Z,21.10
2022-08-20T20:27:27.381Z,21.10
2022-08-20T20:30:11.974Z,21.10
2022-08-20T20:32:48.654Z,21.00
2022-08-20T20:35:34.543Z,21.00
2022-08-20T20:38:06.294Z,20.90
2022-08-20T20:40:49.562Z,20.90
2022-08-20T20:43:43.018Z,20.80
2022-08-20T20:46:19.909Z,20.70
2022-08-20T20:48:50.188Z,20.80
2022-08-20T20:51:27.258Z,20.70
2022-08-20T20:53:57.564Z,20.60
2022-08-20T20:56:40.136Z,20.40
2022-08-20T20:59:08.406Z,20.30
2022-08-20T21:01:48.885Z,20.20
2022-08-20T21:04:17.987Z,20.20
2022-08-20T21:06:45.230Z,20.20
2022-08-20T21:09:12.812Z,20.20
2022-08-20T21:11:39.709Z,20.20
2022-08-20T21:14:06.795Z,20.20
2022-08-20T21:16:33.939Z,20.20
2022-08-20T21:19:04.445Z,20.20
2022-08-20T21:21:31.382Z,20.20
2022-08-20T21:23:58.320Z,20.10
2022-08-20T21:26:27.658Z,20.10
2022-08-20T21:28:54.683Z,20.00
2022-08-20T21:31:22.302Z,20.00
2022-08-20T21:33:49.178Z,20.00
2022-08-20T21:36:16.120Z,20.00
2022-08-20T21:38:43.202Z,19.90
2022-08-20T21:41:10.328Z,19.80
2022-08-20T21:43:37.895Z,19.80
2022-08-20T21:46:05.131Z,19.70
2022-08-20T21:48:32.547Z,19.60
2022-08-20T21:50:59.649Z,19.60
2022-08-20T21:53:26.620Z,19.60
2022-08-20T21:55:53.625Z,19.50
2022-08-20T21:58:21.434Z,19.50
